KRNM

Ramona Airport

Ramona, California, USA
METAR KRNM 170253Z 00000KT 10SM CLR 14/M02 A3005 RMK AO2 SLP171 T01441022 51020 $
Observed Flight Rules
Oct-17 @ 02:53 UTC (16 minutes ago) Visual Flight Rules
Visibility Clouds
10 miles
  • Clear skies
Temperatures Readings
Current 14°C / 57°F
Dewpoint -2°C / 28°F
Humidity 33%
Altimeter 30.05" Hg
Pressure 1017.1 hPa
Elevation 427
METAR KRNM 170253Z 00000KT 10SM CLR 14/M02 A3005 RMK AO2 SLP171 T01441022 51020 $
Observed Flight Rules
Oct-17 @ 02:53 UTC
(16 minutes ago)
VFR
Clouds
  • Clear skies
Temperature Dewpoint
14°C / 57°F -2°C / 28°F
Humidity Altimeter Pressure
33% 30.05" Hg 1017.1 hPa